Flood From: 17-02-2018 16:00 Until: 18-02-2018 16:00 warning for: Flood Level: Yellow info button

Although rather usual in this region, locally or potentially dangerous phenomena are expected. (such as local winds, summer thunderstorms, rising streams or high waves) Be aware and pay attention to the latest weather updates, especially if you carry out activities exposed to weather or close to a stream or shoreline. 


Meteo18 Weather Cam more information Meteo18 Weather Cam


Thunder radar more information blitzortung!


Rain radar more information rain snow radar


Visit our other weather sites:

Template documentation
and downloads

And another site



Weather Underground History page Text

Daily Summary for February 11, 2018 Units:  English    Metric   Both
« Previous Day
Next Day »
Daily Weekly Monthly Yearly Custom
  High: Low: Average:
Temperature: TemperatureC °F 0.4 °F 3.9 °F
Dew Point: DewpointC °F -0.5 °F 2.1 °F
Humidity: Humidity % 62 % 89 %
Wind Speed: WindSpeedKMH mph 0.0 mph 8.7 mph
Wind Gust: WindSpeedGustKMH mph - -
Wind:- - WSW
Pressure: PressurehPa in 1009.0 in -
Precipitation: 4.8 in    
Historical Graphs
 
 
Tabular Data for February 11, 2018
Time Temperature Dew Point Pressure Wind Wind Speed Wind Gust Humidity Rainfall Rate (Hourly)
TemperatureC °F DewpointC °F PressurehPa in Calm     Humidity % HourlyPrecipMM in
00:03 0.7 °F -0.5 °F 1016.1 in SSW 17.7 mph 17.7 mph 92 % 0.0 in
00:09 0.7 °F -0.3 °F 1016.1 in SW 9.7 mph 17.7 mph 93 % 0.0 in
00:15 0.6 °F -0.4 °F 1016.1 in SSW 9.7 mph 16.1 mph 93 % 0.0 in
00:21 0.6 °F -0.3 °F 1015.8 in SSW 9.7 mph 19.3 mph 94 % 0.0 in
00:27 0.6 °F -0.3 °F 1015.8 in SSW 9.7 mph 17.7 mph 94 % 0.0 in
00:33 0.5 °F -0.4 °F 1015.8 in SW 20.9 mph 20.9 mph 94 % 0.0 in
00:39 0.4 °F -0.3 °F 1015.5 in SW 7.9 mph 17.7 mph 95 % 0.0 in
00:45 0.4 °F -0.3 °F 1015.1 in SW 17.7 mph 19.3 mph 95 % 0.0 in
00:51 0.4 °F -0.3 °F 1015.1 in SSW 13.0 mph 17.7 mph 95 % 0.0 in
00:57 0.4 °F -0.3 °F 1015.1 in SSW 11.1 mph 16.1 mph 95 % 0.0 in
01:03 0.4 °F -0.3 °F 1015.1 in SSW 7.9 mph 14.5 mph 95 % 0.3 in
01:09 0.4 °F -0.3 °F 1014.8 in SSW 7.9 mph 14.5 mph 95 % 0.3 in
01:15 0.4 °F -0.2 °F 1014.8 in SSW 16.3 mph 20.9 mph 96 % 0.3 in
01:21 0.4 °F -0.2 °F 1014.4 in SSW 11.1 mph 16.1 mph 96 % 0.3 in
01:27 0.5 °F -0.1 °F 1014.4 in South 9.7 mph 22.5 mph 96 % 0.3 in
01:33 0.5 °F -0.1 °F 1014.4 in SSW 7.9 mph 17.7 mph 96 % 0.3 in
01:39 0.6 °F 0.0 °F 1014.4 in South 11.1 mph 16.1 mph 96 % 0.3 in
01:45 0.6 °F 0.0 °F 1014.4 in SSW 7.9 mph 14.5 mph 96 % 0.3 in
01:51 0.6 °F 0.0 °F 1014.1 in SSW 9.7 mph 14.5 mph 96 % 0.5 in
01:57 0.6 °F 0.0 °F 1014.1 in SSW 9.7 mph 12.9 mph 96 % 0.5 in
02:03 0.7 °F 0.1 °F 1013.8 in SSW 13.0 mph 17.7 mph 96 % 0.5 in
02:09 0.7 °F 0.1 °F 1013.8 in SSW 14.3 mph 22.5 mph 96 % 0.5 in
02:15 0.8 °F 0.2 °F 1013.4 in SSW 13.0 mph 17.7 mph 96 % 0.5 in
02:21 0.8 °F 0.2 °F 1013.4 in SSW 13.0 mph 20.9 mph 96 % 1.0 in
02:27 0.8 °F 0.2 °F 1013.4 in SSW 13.0 mph 22.5 mph 96 % 1.3 in
02:33 0.8 °F 0.2 °F 1013.1 in SSW 16.3 mph 22.5 mph 96 % 1.5 in
02:39 0.9 °F 0.3 °F 1013.1 in SW 16.3 mph 19.3 mph 96 % 1.5 in
02:45 0.9 °F 0.3 °F 1012.8 in SSW 13.0 mph 19.3 mph 96 % 1.5 in
02:51 0.9 °F 0.3 °F 1012.8 in SSW 11.1 mph 19.3 mph 96 % 1.5 in
02:57 1.0 °F 0.4 °F 1012.8 in SSW 17.7 mph 20.9 mph 96 % 1.5 in
03:03 1.1 °F 0.7 °F 1012.4 in SSW 11.1 mph 17.7 mph 97 % 1.5 in
03:09 1.1 °F 0.7 °F 1012.4 in SSW 11.1 mph 20.9 mph 97 % 1.5 in
03:15 1.1 °F 0.7 °F 1012.1 in SSW 14.3 mph 22.5 mph 97 % 1.5 in
03:21 1.2 °F 0.8 °F 1012.1 in SW 19.5 mph 22.5 mph 97 % 1.3 in
03:27 1.2 °F 0.8 °F 1012.1 in SSW 19.5 mph 20.9 mph 97 % 1.0 in
03:33 1.2 °F 0.8 °F 1011.7 in SSW 17.7 mph 20.9 mph 97 % 1.0 in
03:39 1.2 °F 0.8 °F 1011.7 in SSW 16.3 mph 20.9 mph 97 % 1.0 in
03:45 1.2 °F 0.8 °F 1011.7 in SSW 13.0 mph 17.7 mph 97 % 0.8 in
03:51 1.3 °F 0.9 °F 1011.4 in SW 24.1 mph 27.4 mph 97 % 0.8 in
03:57 1.3 °F 0.9 °F 1011.4 in SW 24.1 mph 24.1 mph 97 % 0.5 in
04:03 1.3 °F 0.9 °F 1011.4 in South 17.7 mph 24.1 mph 97 % 0.8 in
04:09 1.3 °F 0.9 °F 1011.4 in SSW 20.9 mph 25.7 mph 97 % 0.5 in
04:15 1.3 °F 0.9 °F 1011.4 in South 19.5 mph 24.1 mph 97 % 0.5 in
04:21 1.3 °F 0.9 °F 1011.1 in SSW 16.3 mph 24.1 mph 97 % 0.5 in
04:27 1.3 °F 0.9 °F 1011.1 in SSW 13.0 mph 20.9 mph 97 % 0.5 in
04:33 1.3 °F 0.9 °F 1010.7 in SSW 16.3 mph 27.4 mph 97 % 0.5 in
04:39 1.4 °F 1.0 °F 1010.7 in South 11.1 mph 16.1 mph 97 % 0.5 in
04:45 1.4 °F 1.0 °F 1010.7 in SW 16.3 mph 17.7 mph 97 % 0.5 in
04:51 1.4 °F 1.0 °F 1010.7 in SSW 14.3 mph 16.1 mph 97 % 0.5 in
04:57 1.4 °F 1.0 °F 1010.7 in South 11.1 mph 14.5 mph 97 % 0.5 in
05:03 1.4 °F 1.0 °F 1010.4 in SSW 13.0 mph 17.7 mph 97 % 0.5 in
05:09 1.5 °F 1.1 °F 1010.4 in SW 13.0 mph 14.5 mph 97 % 0.5 in
05:15 1.5 °F 1.1 °F 1010.4 in SW 13.0 mph 20.9 mph 97 % 0.5 in
05:21 1.5 °F 1.1 °F 1010.4 in SSW 13.0 mph 19.3 mph 97 % 0.5 in
05:27 1.6 °F 1.2 °F 1010.4 in SSW 7.9 mph 11.3 mph 97 % 0.3 in
05:33 1.6 °F 1.2 °F 1010.4 in SSE 7.9 mph 14.5 mph 97 % 0.3 in
05:39 1.6 °F 1.2 °F 1010.0 in SSW 9.7 mph 16.1 mph 97 % 0.3 in
05:45 1.6 °F 1.2 °F 1010.0 in SSE 7.9 mph 12.9 mph 97 % 0.3 in
05:51 1.6 °F 1.2 °F 1010.0 in SSW 11.1 mph 14.5 mph 97 % 0.5 in
05:57 1.6 °F 1.2 °F 1010.0 in SSW 13.0 mph 14.5 mph 97 % 0.3 in
06:03 1.7 °F 1.3 °F 1009.7 in SW 13.0 mph 14.5 mph 97 % 0.3 in
06:09 1.7 °F 1.3 °F 1009.7 in SSW 7.9 mph 16.1 mph 97 % 0.3 in
06:15 1.7 °F 1.3 °F 1010.0 in SSW 4.7 mph 12.9 mph 97 % 0.3 in
06:21 1.7 °F 1.3 °F 1009.7 in SSW 9.7 mph 14.5 mph 97 % 0.3 in
06:27 1.8 °F 1.5 °F 1009.7 in SSW 14.3 mph 14.5 mph 98 % 0.3 in
06:33 1.8 °F 1.5 °F 1009.7 in SSW 11.1 mph 14.5 mph 98 % 0.3 in
06:39 1.8 °F 1.5 °F 1009.7 in SSW 6.4 mph 12.9 mph 98 % 0.3 in
06:45 1.8 °F 1.5 °F 1009.7 in SSW 7.9 mph 14.5 mph 98 % 0.3 in
06:51 1.9 °F 1.6 °F 1009.7 in SSW 6.4 mph 14.5 mph 98 % 0.0 in
06:57 1.9 °F 1.6 °F 1009.7 in SSW 7.9 mph 12.9 mph 98 % 0.3 in
07:03 2.0 °F 1.7 °F 1009.4 in SSW 7.9 mph 9.7 mph 98 % 0.3 in
07:09 2.0 °F 1.7 °F 1009.4 in South 3.2 mph 11.3 mph 98 % 0.3 in
07:15 2.0 °F 1.7 °F 1009.4 in SSW 6.4 mph 11.3 mph 98 % 0.3 in
07:21 2.1 °F 1.8 °F 1009.4 in SSW 6.4 mph 9.7 mph 98 % 0.3 in
07:27 2.1 °F 1.8 °F 1009.0 in SSW 7.9 mph 11.3 mph 98 % 0.3 in
07:33 2.1 °F 1.8 °F 1009.0 in SSW 6.4 mph 9.7 mph 98 % 0.3 in
07:39 2.2 °F 1.9 °F 1009.0 in SSE 4.7 mph 11.3 mph 98 % 0.3 in
07:45 2.2 °F 1.9 °F 1009.0 in SSW 6.4 mph 11.3 mph 98 % 0.3 in
07:51 2.3 °F 2.0 °F 1009.0 in SSW 4.7 mph 9.7 mph 98 % 0.3 in
07:57 2.4 °F 2.1 °F 1009.0 in SW 6.4 mph 16.1 mph 98 % 0.0 in
08:03 2.4 °F 2.1 °F 1009.0 in SSW 6.4 mph 11.3 mph 98 % 0.0 in
08:09 2.5 °F 2.2 °F 1009.0 in South 7.9 mph 12.9 mph 98 % 0.0 in
08:15 2.6 °F 2.3 °F 1009.0 in SSW 4.7 mph 11.3 mph 98 % 0.3 in
08:21 2.6 °F 2.3 °F 1009.0 in SSW 6.4 mph 8.0 mph 98 % 0.3 in
08:27 2.7 °F 2.4 °F 1009.0 in SSW 4.7 mph 9.7 mph 98 % 0.3 in
08:33 2.8 °F 2.5 °F 1009.0 in SSW 6.4 mph 9.7 mph 98 % 0.5 in
08:39 2.9 °F 2.6 °F 1009.0 in SSW 4.7 mph 11.3 mph 98 % 0.5 in
08:45 3.1 °F 2.8 °F 1009.0 in SSW 4.7 mph 9.7 mph 98 % 0.5 in
08:51 3.2 °F 2.9 °F 1009.4 in SW 6.4 mph 8.0 mph 98 % 0.5 in
08:57 3.3 °F 3.0 °F 1009.4 in Calm   6.4 mph 98 % 0.5 in
09:03 3.6 °F 3.3 °F 1009.7 in SSW 3.2 mph 6.4 mph 98 % 0.5 in
09:09 3.7 °F 3.4 °F 1009.7 in SSW 7.9 mph 11.3 mph 98 % 0.5 in
09:15 3.8 °F 3.5 °F 1009.7 in SW 4.7 mph 9.7 mph 98 % 0.5 in
09:21 3.9 °F 3.6 °F 1009.7 in SW 7.9 mph 9.7 mph 98 % 0.5 in
09:27 4.0 °F 3.7 °F 1009.7 in WSW 7.9 mph 8.0 mph 98 % 0.5 in
09:34 4.1 °F 3.8 °F 1009.7 in SW 1.4 mph 6.4 mph 98 % 0.3 in
09:40 4.2 °F 3.9 °F 1009.7 in SW 3.2 mph 9.7 mph 98 % 0.5 in
09:45 4.3 °F 4.0 °F 1010.0 in WSW 3.2 mph 6.4 mph 98 % 0.3 in
09:51 4.3 °F 4.0 °F 1010.0 in SW 1.4 mph 11.3 mph 98 % 0.3 in
09:57 4.4 °F 4.1 °F 1010.0 in SW 4.7 mph 9.7 mph 98 % 0.3 in
10:04 4.4 °F 4.1 °F 1010.0 in SW 4.7 mph 9.7 mph 98 % 0.3 in
10:10 4.4 °F 4.1 °F 1010.0 in SW 7.9 mph 11.3 mph 98 % 0.3 in
10:16 4.4 °F 4.1 °F 1009.7 in WSW 7.9 mph 14.5 mph 98 % 0.3 in
10:22 4.5 °F 4.2 °F 1010.0 in WSW 7.9 mph 9.7 mph 98 % 0.3 in
10:28 4.6 °F 4.3 °F 1009.7 in WSW 6.4 mph 9.7 mph 98 % 0.3 in
10:34 4.7 °F 4.4 °F 1010.0 in WSW 6.4 mph 8.0 mph 98 % 0.3 in
10:40 4.8 °F 4.5 °F 1010.0 in WSW 6.4 mph 9.7 mph 98 % 0.0 in
10:46 4.9 °F 4.6 °F 1010.0 in WSW 3.2 mph 9.7 mph 98 % 0.0 in
10:52 4.9 °F 4.6 °F 1010.0 in WSW 13.0 mph 13.0 mph 98 % 0.0 in
10:58 5.0 °F 4.7 °F 1010.0 in West 6.4 mph 8.0 mph 98 % 0.0 in
11:04 5.1 °F 4.8 °F 1010.0 in WSW 6.4 mph 12.9 mph 98 % 0.0 in
11:10 5.2 °F 4.9 °F 1010.0 in WSW 11.1 mph 11.3 mph 98 % 0.0 in
11:16 5.2 °F 4.9 °F 1010.0 in WNW 7.9 mph 14.5 mph 98 % 0.0 in
11:22 5.4 °F 5.1 °F 1010.0 in West 7.9 mph 11.3 mph 98 % 0.0 in
11:28 5.5 °F 5.2 °F 1010.0 in West 6.4 mph 8.0 mph 98 % 0.0 in
11:34 5.6 °F 5.2 °F 1010.0 in WNW 6.4 mph 8.0 mph 97 % 0.0 in
11:40 5.7 °F 5.3 °F 1010.0 in West 4.7 mph 9.7 mph 97 % 0.0 in
11:46 5.8 °F 5.4 °F 1010.0 in WSW 3.2 mph 8.0 mph 97 % 0.0 in
11:52 5.8 °F 5.2 °F 1010.0 in WSW 6.4 mph 11.3 mph 96 % 0.0 in
11:58 5.9 °F 5.2 °F 1010.0 in WSW 6.4 mph 11.3 mph 95 % 0.0 in
12:04 6.2 °F 5.5 °F 1010.0 in West 3.2 mph 6.4 mph 95 % 0.0 in
12:10 6.2 °F 5.3 °F 1010.0 in West 11.1 mph 12.9 mph 94 % 0.0 in
12:16 6.5 °F 5.6 °F 1010.0 in West 1.4 mph 8.0 mph 94 % 0.0 in
12:22 6.7 °F 5.6 °F 1010.0 in West 6.4 mph 11.3 mph 93 % 0.0 in
12:28 6.8 °F 5.6 °F 1010.0 in West 13.0 mph 16.1 mph 92 % 0.0 in
12:34 6.9 °F 5.4 °F 1010.4 in WNW 13.0 mph 16.1 mph 90 % 0.0 in
12:40 7.1 °F 5.2 °F 1010.4 in West 17.7 mph 25.7 mph 88 % 0.0 in
12:46 7.3 °F 5.4 °F 1010.0 in Calm   9.7 mph 88 % 0.0 in
12:52 7.3 °F 5.3 °F 1010.0 in WNW 13.0 mph 16.1 mph 87 % 0.0 in
12:58 7.3 °F 5.3 °F 1010.0 in WNW 4.7 mph 14.5 mph 87 % 0.0 in
13:04 7.3 °F 5.1 °F 1010.4 in West 13.0 mph 16.1 mph 86 % 0.0 in
13:10 7.4 °F 5.0 °F 1010.4 in West 11.1 mph 17.7 mph 85 % 0.0 in
13:16 7.4 °F 4.5 °F 1010.0 in West 7.9 mph 17.7 mph 82 % 0.0 in
13:22 7.4 °F 4.0 °F 1010.0 in WNW 13.0 mph 20.9 mph 79 % 0.0 in
13:28 7.3 °F 4.1 °F 1010.0 in West 1.4 mph 16.1 mph 80 % 0.0 in
13:34 7.6 °F 4.4 °F 1010.0 in NW 6.4 mph 11.3 mph 80 % 0.0 in
13:40 7.7 °F 4.3 °F 1010.0 in NW 7.9 mph 17.7 mph 79 % 0.0 in
13:46 7.8 °F 4.2 °F 1010.0 in WNW 9.7 mph 19.3 mph 78 % 0.0 in
13:52 7.7 °F 3.9 °F 1010.0 in NNW 6.4 mph 19.3 mph 77 % 0.0 in
13:58 7.7 °F 3.7 °F 1010.0 in NW 9.7 mph 12.9 mph 76 % 0.0 in
14:04 7.6 °F 3.1 °F 1010.0 in WNW 14.3 mph 19.3 mph 73 % 0.0 in
14:10 7.6 °F 2.9 °F 1010.0 in WNW 7.9 mph 20.9 mph 72 % 0.0 in
14:16 7.6 °F 2.5 °F 1010.0 in WNW 7.9 mph 20.9 mph 70 % 0.0 in
14:22 7.7 °F 2.6 °F 1010.0 in West 16.3 mph 20.9 mph 70 % 0.0 in
14:28 7.8 °F 2.1 °F 1010.0 in WNW 9.7 mph 19.3 mph 67 % 0.0 in
14:34 7.9 °F 2.2 °F 1010.0 in West 13.0 mph 16.1 mph 67 % 0.0 in
14:40 8.1 °F 3.0 °F 1010.0 in West 11.1 mph 14.5 mph 70 % 0.0 in
14:46 8.0 °F 2.5 °F 1010.0 in WNW 11.1 mph 20.9 mph 68 % 0.0 in
14:52 8.1 °F 2.5 °F 1010.0 in WNW 13.0 mph 14.5 mph 68 % 0.0 in
14:58 8.2 °F 2.6 °F 1010.0 in WNW 9.7 mph 12.9 mph 68 % 0.0 in
15:04 8.2 °F 2.6 °F 1010.0 in NW 6.4 mph 9.7 mph 68 % 0.0 in
15:10 8.2 °F 2.4 °F 1010.0 in NW 13.0 mph 17.7 mph 67 % 0.0 in
15:16 8.3 °F 2.5 °F 1010.0 in WNW 13.0 mph 14.5 mph 67 % 0.0 in
15:22 8.4 °F 2.8 °F 1010.0 in WNW 9.7 mph 19.3 mph 68 % 0.0 in
15:28 8.3 °F 2.1 °F 1010.0 in West 11.1 mph 19.3 mph 65 % 0.0 in
15:34 8.3 °F 2.5 °F 1010.0 in West 9.7 mph 19.3 mph 67 % 0.0 in
15:40 8.2 °F 1.8 °F 1010.0 in West 11.1 mph 20.9 mph 64 % 0.0 in
15:46 8.1 °F 1.3 °F 1010.0 in West 16.3 mph 22.5 mph 62 % 0.0 in
15:52 8.1 °F 1.3 °F 1010.4 in West 13.0 mph 19.3 mph 62 % 0.0 in
15:58 8.0 °F 1.4 °F 1010.4 in WNW 11.1 mph 16.1 mph 63 % 0.0 in
16:04 8.0 °F 1.4 °F 1010.4 in West 7.9 mph 19.3 mph 63 % 0.0 in
16:10 7.9 °F 1.5 °F 1010.4 in West 9.7 mph 12.9 mph 64 % 0.0 in
16:16 7.9 °F 1.7 °F 1010.4 in West 9.7 mph 11.3 mph 65 % 0.0 in
16:22 7.8 °F 1.6 °F 1010.4 in West 9.7 mph 22.5 mph 65 % 0.0 in
16:28 7.8 °F 1.2 °F 1010.4 in West 3.2 mph 16.1 mph 63 % 0.0 in
16:34 7.7 °F 1.1 °F 1010.4 in WNW 7.9 mph 12.9 mph 63 % 0.0 in
16:40 7.6 °F 1.4 °F 1010.4 in WNW 9.7 mph 9.7 mph 65 % 0.0 in
16:46 7.6 °F 1.4 °F 1010.7 in WNW 6.4 mph 8.0 mph 65 % 0.0 in
16:52 7.5 °F 1.8 °F 1010.7 in WNW 9.7 mph 9.7 mph 67 % 0.0 in
16:58 7.4 °F 1.7 °F 1010.7 in WSW 6.4 mph 9.7 mph 67 % 0.0 in
17:04 7.4 °F 1.7 °F 1010.7 in WNW 6.4 mph 9.7 mph 67 % 0.0 in
17:10 7.4 °F 1.9 °F 1010.7 in West 1.4 mph 14.5 mph 68 % 0.0 in
17:16 7.4 °F 1.9 °F 1010.7 in WNW 6.4 mph 14.5 mph 68 % 0.0 in
17:22 7.3 °F 2.2 °F 1010.7 in West 11.1 mph 12.9 mph 70 % 0.0 in
17:28 7.2 °F 2.1 °F 1010.7 in WNW 6.4 mph 6.4 mph 70 % 0.0 in
17:34 7.1 °F 2.2 °F 1011.1 in WNW 9.7 mph 12.9 mph 71 % 0.0 in
17:40 6.9 °F 2.0 °F 1010.7 in WNW 19.5 mph 19.5 mph 71 % 0.0 in
17:46 6.9 °F 2.2 °F 1011.1 in West 6.4 mph 17.7 mph 72 % 0.0 in
17:52 6.7 °F 2.4 °F 1011.1 in WNW 11.1 mph 37.0 mph 74 % 0.0 in
17:58 6.2 °F 2.6 °F 1011.4 in West 13.0 mph 30.6 mph 78 % 0.0 in
18:04 5.2 °F 2.7 °F 1011.1 in West 14.3 mph 20.9 mph 84 % 0.3 in
18:10 4.9 °F 2.4 °F 1011.1 in WNW 4.7 mph 17.7 mph 84 % 0.3 in
18:16 4.9 °F 2.4 °F 1011.4 in WNW 7.9 mph 12.9 mph 84 % 0.3 in
18:22 4.8 °F 2.5 °F 1011.4 in WNW 3.2 mph 6.4 mph 85 % 0.3 in
18:28 4.7 °F 2.4 °F 1011.7 in WNW 6.4 mph 9.7 mph 85 % 0.3 in
18:34 4.7 °F 2.6 °F 1011.7 in WNW 6.4 mph 12.9 mph 86 % 0.3 in
18:40 4.7 °F 2.6 °F 1011.7 in West 7.9 mph 12.9 mph 86 % 0.3 in
18:46 4.9 °F 2.6 °F 1012.1 in West 14.3 mph 19.3 mph 85 % 0.3 in
18:52 4.9 °F 2.8 °F 1012.1 in WNW 7.9 mph 24.1 mph 86 % 0.3 in
18:58 4.7 °F 2.9 °F 1011.7 in West 11.1 mph 14.5 mph 88 % 0.3 in
19:04 4.5 °F 2.8 °F 1012.1 in WNW 6.4 mph 9.7 mph 89 % 0.0 in
19:10 4.2 °F 2.5 °F 1012.1 in WNW 4.7 mph 14.5 mph 89 % 0.3 in
19:16 4.0 °F 2.4 °F 1012.1 in WNW 3.2 mph 8.0 mph 89 % 0.3 in
19:22 3.9 °F 2.3 °F 1012.1 in WNW 1.4 mph 6.4 mph 89 % 0.3 in
19:28 3.9 °F 2.3 °F 1012.1 in WNW 3.2 mph 4.8 mph 89 % 0.3 in
19:34 3.8 °F 2.3 °F 1012.4 in West 1.4 mph 4.8 mph 90 % 0.3 in
19:40 3.8 °F 2.3 °F 1012.4 in WNW 1.4 mph 4.8 mph 90 % 0.3 in
19:47 3.7 °F 2.4 °F 1012.4 in Calm   3.2 mph 91 % 0.3 in
19:53 3.8 °F 2.3 °F 1012.4 in West 1.4 mph 1.6 mph 90 % 0.3 in
19:59 3.7 °F 2.4 °F 1012.4 in Calm     91 % 0.3 in
20:05 3.6 °F 2.3 °F 1012.8 in Calm   1.6 mph 91 % 0.3 in
20:11 3.6 °F 2.3 °F 1012.8 in Calm   1.6 mph 91 % 0.0 in
20:17 3.5 °F 2.3 °F 1012.8 in WNW 3.2 mph 4.8 mph 92 % 0.0 in
20:23 3.7 °F 2.2 °F 1012.8 in WNW 4.7 mph 9.7 mph 90 % 0.0 in
20:29 3.8 °F 2.2 °F 1013.1 in WNW 4.7 mph 8.0 mph 89 % 0.0 in
20:35 3.8 °F 2.2 °F 1013.1 in Calm   8.0 mph 89 % 0.0 in
20:41 3.8 °F 2.2 °F 1013.1 in WNW 3.2 mph 9.7 mph 89 % 0.0 in
20:47 3.8 °F 2.2 °F 1013.1 in WNW 7.9 mph 12.9 mph 89 % 0.0 in
20:53 3.8 °F 2.2 °F 1013.1 in WNW 7.9 mph 12.9 mph 89 % 0.0 in
20:59 3.8 °F 2.0 °F 1013.4 in WNW 3.2 mph 12.9 mph 88 % 0.0 in
21:05 3.8 °F 2.0 °F 1013.4 in WNW 11.1 mph 17.7 mph 88 % 0.0 in
21:11 3.8 °F 2.0 °F 1013.4 in WNW 4.7 mph 19.3 mph 88 % 0.0 in
21:17 3.8 °F 2.0 °F 1013.4 in West 7.9 mph 20.9 mph 88 % 0.0 in
21:23 3.8 °F 2.0 °F 1013.4 in WNW 4.7 mph 14.5 mph 88 % 0.0 in
21:29 3.8 °F 2.0 °F 1013.4 in WNW 4.7 mph 14.5 mph 88 % 0.0 in
21:35 3.7 °F 1.9 °F 1013.4 in NW 6.4 mph 11.3 mph 88 % 0.0 in
21:41 3.7 °F 1.9 °F 1013.4 in NW 7.9 mph 16.1 mph 88 % 0.0 in
21:47 3.7 °F 1.9 °F 1013.4 in West 3.2 mph 14.5 mph 88 % 0.0 in
21:53 3.7 °F 1.9 °F 1013.4 in West 1.4 mph 17.7 mph 88 % 0.0 in
21:59 3.6 °F 1.8 °F 1013.4 in WNW 7.9 mph 12.9 mph 88 % 0.0 in
22:05 3.6 °F 1.8 °F 1013.8 in WNW 7.9 mph 16.1 mph 88 % 0.0 in
22:11 3.5 °F 1.7 °F 1013.8 in NW 9.7 mph 12.9 mph 88 % 0.0 in
22:17 3.4 °F 1.6 °F 1013.8 in WNW 6.4 mph 19.3 mph 88 % 0.0 in
22:23 3.4 °F 1.6 °F 1013.8 in NW 3.2 mph 17.7 mph 88 % 0.0 in
22:29 3.4 °F 1.6 °F 1013.8 in West 9.7 mph 11.3 mph 88 % 0.0 in
22:35 3.3 °F 1.5 °F 1014.1 in West 7.9 mph 8.0 mph 88 % 0.0 in
22:41 3.3 °F 1.5 °F 1014.1 in West 6.4 mph 11.3 mph 88 % 0.0 in
22:47 3.2 °F 1.4 °F 1014.4 in West 3.2 mph 12.9 mph 88 % 0.0 in
22:53 3.2 °F 1.6 °F 1014.4 in West 4.7 mph 9.7 mph 89 % 0.0 in
22:59 3.1 °F 1.3 °F 1014.4 in WNW 1.4 mph 8.0 mph 88 % 0.0 in
23:05 3.1 °F 1.5 °F 1014.4 in West 3.2 mph 8.0 mph 89 % 0.0 in
23:11 2.9 °F 1.3 °F 1014.4 in West 3.2 mph 8.0 mph 89 % 0.0 in
23:17 2.8 °F 1.2 °F 1014.4 in WNW 7.9 mph 8.0 mph 89 % 0.0 in
23:23 2.8 °F 1.2 °F 1014.4 in WNW 6.4 mph 11.3 mph 89 % 0.0 in
23:29 2.7 °F 1.1 °F 1014.4 in WNW 6.4 mph 12.9 mph 89 % 0.0 in
23:35 2.6 °F 1.0 °F 1014.4 in WNW 7.9 mph 16.1 mph 89 % 0.0 in
23:41 2.5 °F 0.7 °F 1014.4 in WNW 7.9 mph 17.7 mph 88 % 0.0 in
23:47 2.5 °F 0.7 °F 1014.4 in WNW 11.1 mph 20.9 mph 88 % 0.0 in
23:53 2.5 °F 0.6 °F 1014.8 in NW 11.1 mph 17.7 mph 87 % 0.0 in
23:59 2.4 °F 0.5 °F 1014.8 in WNW 4.7 mph 17.7 mph 87 % 0.0 in
Meteo18
Compliments of Weather Underground - 4 mb

Script developed by  Jim McMurry - jmcmurry@mwt.net Adapted for the template by  Wim van der Kuil - Leuven-Template.eu

You find our weather info also at:

European Weather Network

Weather Underground

Equipment we use:

Weather-station
Davis Vue

Weather-program
Meteobridge

Weather-server
Raspberry PI 2 B+

Provider
1 and 1

Davis Vue

Meteobridge

Raspberry PI 2 B+

1 and 1